LF6622 weather

Altiport du Col de la Marrano
Puyvalador, Languedoc-Roussillon, France

Public forecast

Using degrees Celsius for public forecast. Weather courtesy of forecast.io.

METAR (pilot weather report)

Closest report is Perpignan-Rivesaltes (Llabanère) Airport, 31.4 nm (58.2 km) E. Retrieved 2019/09/19 18:30 UTC (0 seconds ago):

LFMP 191830Z AUTO VRB02KT 9999 NCD 23/16 Q1017 NOSIG

TAF (pilot weather forecast)

Closest forecast is Perpignan-Rivesaltes (Llabanère) Airport, 31.4 nm (58.2 km) E. Retrieved 2019/09/19 15:42 UTC (3 hours ago):

TAF LFMP 191400Z 1915/2015 12008KT CAVOK TEMPO 1915/1917 FEW040TCU BECMG 1918/1920 VRB04KT TEMPO 2000/2008 SCT010 BECMG 2007/2009 12010KT TEMPO 2010/2015 12015G25KT